Time;durP1;ratioP1;P1;durP2;ratioP2;P2;SDS_P1;SDS_P2;PMS_P1;PMS_P2;Temp;Humidity;BMP_temperature;BMP_pressure;BME280_temperature;BME280_humidity;BME280_pressure;Samples;Min_cycle;Max_cycle;Signal;HPM_P1;HPM_P2
2020/12/01 00:00:19;;;;;;;9.60;8.67;;;4.80;99.90;;;;;;5032572;28;20157;-65
2020/12/01 00:02:45;;;;;;;11.73;10.50;;;4.80;99.90;;;;;;5025089;28;20174;-65
2020/12/01 00:05:12;;;;;;;11.27;9.80;;;4.80;99.90;;;;;;5028124;28;20392;-65
2020/12/01 00:07:38;;;;;;;11.77;10.47;;;4.80;99.90;;;;;;5012798;28;20438;-65
2020/12/01 00:10:05;;;;;;;10.90;9.80;;;4.80;99.90;;;;;;5012740;28;20818;-65
2020/12/01 00:12:31;;;;;;;10.57;9.40;;;4.80;99.90;;;;;;5012689;28;20819;-65
2020/12/01 00:14:56;;;;;;;11.53;9.40;;;4.90;99.90;;;;;;5020298;28;20416;-65
2020/12/01 00:17:22;;;;;;;10.37;9.27;;;4.90;99.90;;;;;;5014220;28;20197;-65
2020/12/01 00:19:47;;;;;;;9.40;8.27;;;4.90;99.90;;;;;;5019024;28;20197;-65
2020/12/01 00:22:13;;;;;;;10.20;9.20;;;4.90;99.90;;;;;;5032341;28;20149;-65
2020/12/01 00:24:39;;;;;;;9.90;8.93;;;4.90;99.90;;;;;;5032163;28;20233;-65
2020/12/01 00:27:04;;;;;;;8.23;7.43;;;4.90;99.90;;;;;;5032430;28;20189;-65
2020/12/01 00:29:30;;;;;;;8.13;7.43;;;5.00;99.90;;;;;;5032084;28;20438;-65
2020/12/01 00:31:55;;;;;;;7.80;6.97;;;5.00;99.90;;;;;;5032087;28;20169;-65
2020/12/01 00:34:21;;;;;;;7.33;6.73;;;5.00;99.90;;;;;;5032217;28;20161;-65
2020/12/01 00:36:46;;;;;;;7.67;7.00;;;5.00;99.90;;;;;;5031213;28;20554;-65
2020/12/01 00:39:12;;;;;;;8.67;7.70;;;5.00;99.90;;;;;;5031894;28;20168;-65
2020/12/01 00:41:38;;;;;;;6.87;6.17;;;5.00;99.90;;;;;;5032491;28;20158;-65
2020/12/01 00:44:05;;;;;;;5.20;4.70;;;4.90;99.90;;;;;;5016326;28;20484;-65
2020/12/01 00:46:31;;;;;;;5.73;5.23;;;4.90;99.90;;;;;;5015954;28;20420;-65
2020/12/01 00:48:56;;;;;;;6.93;6.27;;;4.90;99.90;;;;;;5014662;28;20883;-65
2020/12/01 00:51:22;;;;;;;5.40;4.90;;;4.90;99.90;;;;;;5016026;28;20438;-65
2020/12/01 00:53:48;;;;;;;6.33;5.77;;;4.90;99.90;;;;;;5015148;28;20181;-65
2020/12/01 00:56:22;;;;;;;5.83;5.33;;;4.90;99.90;;;;;;5014490;28;20856;-65
2020/12/01 00:58:49;;;;;;;6.53;5.93;;;4.90;99.90;;;;;;5014371;28;20161;-65
2020/12/01 01:01:14;;;;;;;6.17;5.67;;;4.90;99.90;;;;;;5014433;28;20404;-65
2020/12/01 01:03:40;;;;;;;6.80;6.10;;;4.90;99.90;;;;;;5015837;28;20408;-65
2020/12/01 01:06:10;;;;;;;7.53;6.43;;;4.90;99.90;;;;;;5015553;28;20420;-65
2020/12/01 01:08:35;;;;;;;7.17;6.53;;;5.00;99.90;;;;;;5014362;28;20190;-65
2020/12/01 01:11:01;;;;;;;7.67;6.50;;;5.00;99.90;;;;;;5016091;28;20549;-65
2020/12/01 01:13:26;;;;;;;7.53;6.83;;;5.00;99.90;;;;;;5026917;28;20186;-65
2020/12/01 01:15:52;;;;;;;7.53;6.83;;;5.00;99.90;;;;;;5035122;28;20280;-65
2020/12/01 01:18:17;;;;;;;7.73;7.00;;;5.00;99.90;;;;;;5035203;28;20149;-65
2020/12/01 01:20:42;;;;;;;8.97;8.07;;;5.00;99.90;;;;;;5035028;28;20215;-65
2020/12/01 01:23:08;;;;;;;8.63;7.73;;;5.00;99.90;;;;;;5035268;28;20236;-65
2020/12/01 01:25:34;;;;;;;9.77;8.53;;;5.10;99.90;;;;;;5033857;28;20163;-65
2020/12/01 01:27:59;;;;;;;11.63;8.70;;;5.10;99.90;;;;;;5026983;28;20177;-65
2020/12/01 01:30:25;;;;;;;9.90;9.00;;;5.10;99.90;;;;;;5015105;28;20165;-65
2020/12/01 01:32:51;;;;;;;9.80;8.77;;;5.10;99.90;;;;;;5015024;28;20651;-65
2020/12/01 01:35:17;;;;;;;10.97;9.67;;;5.20;99.90;;;;;;5014796;28;20590;-65
2020/12/01 01:37:43;;;;;;;10.00;9.00;;;5.20;99.90;;;;;;5015309;28;20399;-65
2020/12/01 01:40:17;;;;;;;11.07;9.97;;;5.20;99.90;;;;;;5014078;28;20406;-65
2020/12/01 01:42:42;;;;;;;10.40;9.40;;;5.20;99.90;;;;;;5014066;28;20207;-65
2020/12/01 01:45:10;;;;;;;11.20;10.10;;;5.20;99.90;;;;;;5019723;28;20449;-65
2020/12/01 01:47:36;;;;;;;11.00;9.93;;;5.20;99.90;;;;;;5014794;28;20186;-65
2020/12/01 01:50:12;;;;;;;10.77;9.67;;;5.20;99.90;;;;;;5014731;28;20754;-65
2020/12/01 01:52:40;;;;;;;11.27;10.20;;;5.20;99.90;;;;;;5014904;28;20641;-65
2020/12/01 01:55:10;;;;;;;11.07;9.97;;;5.20;99.90;;;;;;5014654;28;20405;-65
2020/12/01 01:57:37;;;;;;;10.50;9.40;;;5.20;99.90;;;;;;5013437;28;20477;-65
2020/12/01 02:00:13;;;;;;;10.10;9.20;;;5.20;99.90;;;;;;5014901;28;20392;-65
2020/12/01 02:02:38;;;;;;;9.07;8.27;;;5.20;99.90;;;;;;5027521;28;20904;-65
2020/12/01 02:05:04;;;;;;;9.20;8.40;;;5.20;99.90;;;;;;5034434;28;20446;-65
2020/12/01 02:07:29;;;;;;;9.00;8.20;;;5.20;99.90;;;;;;5034443;28;20157;-65
2020/12/01 02:09:57;;;;;;;10.40;9.40;;;5.20;99.90;;;;;;5034210;28;20157;-65
2020/12/01 02:12:24;;;;;;;8.53;7.70;;;5.20;99.90;;;;;;5033528;28;20172;-65
2020/12/01 02:17:29;;;;;;;12.00;9.83;;;5.20;99.90;;;;;;5110695;27;20571;-64
2020/12/01 02:22:41;;;;;;;8.97;7.73;;;5.10;99.90;;;;;;5131393;27;20515;-64
2020/12/01 02:25:06;;;;;;;6.50;5.90;;;5.20;99.90;;;;;;5131386;28;20453;-64
2020/12/01 02:27:32;;;;;;;6.23;5.63;;;5.20;99.90;;;;;;5131303;28;20782;-65
2020/12/01 02:29:59;;;;;;;5.70;5.20;;;5.20;99.90;;;;;;5131074;28;20619;-65
2020/12/01 02:32:26;;;;;;;5.70;5.20;;;5.20;99.90;;;;;;5129869;28;20258;-64
2020/12/01 02:34:53;;;;;;;6.97;6.33;;;5.20;99.90;;;;;;5119998;28;20419;-65
2020/12/01 02:37:23;;;;;;;7.13;6.53;;;5.30;99.90;;;;;;5128612;28;20391;-65
2020/12/01 02:39:49;;;;;;;6.90;6.30;;;5.30;99.90;;;;;;5130816;28;20380;-65
2020/12/01 02:42:22;;;;;;;9.07;8.23;;;5.30;99.90;;;;;;5126518;28;20811;-64
2020/12/01 02:44:51;;;;;;;9.13;8.40;;;5.30;99.90;;;;;;5110577;28;20168;-65
2020/12/01 02:47:17;;;;;;;10.00;9.00;;;5.30;99.90;;;;;;5110084;28;20978;-65
2020/12/01 02:49:43;;;;;;;10.13;9.17;;;5.20;99.90;;;;;;5110575;28;20425;-64
2020/12/01 02:52:09;;;;;;;11.73;10.63;;;5.20;99.90;;;;;;5110006;28;20151;-64
2020/12/01 02:54:34;;;;;;;11.90;10.70;;;5.20;99.90;;;;;;5129394;28;20224;-64
2020/12/01 02:57:00;;;;;;;12.07;10.80;;;5.10;99.90;;;;;;5130658;28;20515;-64
2020/12/01 02:59:25;;;;;;;11.50;10.40;;;5.20;99.90;;;;;;5130491;28;20157;-64
2020/12/01 03:01:51;;;;;;;10.90;9.70;;;5.20;99.90;;;;;;5130775;28;20187;-65
2020/12/01 03:04:17;;;;;;;11.50;10.30;;;5.20;99.90;;;;;;5130868;28;20512;-64
2020/12/01 03:06:42;;;;;;;11.43;10.43;;;5.20;99.90;;;;;;5130377;28;20151;-65
2020/12/01 03:09:10;;;;;;;11.30;10.03;;;5.20;99.90;;;;;;5129528;28;20155;-64
2020/12/01 03:11:35;;;;;;;12.13;10.93;;;5.20;99.90;;;;;;5130334;27;20151;-65
2020/12/01 03:14:01;;;;;;;12.50;11.03;;;5.20;99.90;;;;;;5112298;28;20473;-65
2020/12/01 03:16:27;;;;;;;11.13;10.03;;;5.20;99.90;;;;;;5108859;28;20182;-64
2020/12/01 03:18:52;;;;;;;10.90;9.80;;;5.20;99.90;;;;;;5109722;28;20198;-64
2020/12/01 03:21:18;;;;;;;11.60;10.30;;;5.20;99.90;;;;;;5092991;28;20642;-64
2020/12/01 03:23:44;;;;;;;11.33;10.13;;;5.20;99.90;;;;;;5089218;28;20186;-64
2020/12/01 03:26:15;;;;;;;13.00;10.20;;;5.20;99.90;;;;;;5090826;28;20248;-65
2020/12/01 03:28:41;;;;;;;13.90;11.63;;;5.20;99.90;;;;;;5109921;28;20385;-64
2020/12/01 03:31:06;;;;;;;11.60;10.33;;;5.20;99.90;;;;;;5109621;28;20757;-64
2020/12/01 03:33:32;;;;;;;11.20;10.17;;;5.20;99.90;;;;;;5098593;28;20158;-64
2020/12/01 03:35:57;;;;;;;10.73;9.67;;;5.20;99.90;;;;;;5096693;28;20168;-65
2020/12/01 03:38:23;;;;;;;11.47;9.83;;;5.10;99.90;;;;;;5095925;28;20207;-65
2020/12/01 03:40:48;;;;;;;10.07;9.13;;;5.10;99.90;;;;;;5095654;28;20270;-65
2020/12/01 03:43:15;;;;;;;11.13;9.33;;;5.10;99.90;;;;;;5095370;28;20174;-65
2020/12/01 03:45:40;;;;;;;11.23;10.03;;;5.10;99.90;;;;;;5093831;28;20262;-65
2020/12/01 03:48:06;;;;;;;11.57;10.37;;;5.10;99.90;;;;;;5094407;28;20413;-65
2020/12/01 03:50:32;;;;;;;11.47;10.37;;;5.10;99.90;;;;;;5094324;28;20167;-65
2020/12/01 03:52:58;;;;;;;11.70;10.50;;;5.10;99.90;;;;;;5095528;28;20410;-65
2020/12/01 03:55:25;;;;;;;12.93;11.63;;;5.20;99.90;;;;;;5095874;28;20420;-65
2020/12/01 03:57:51;;;;;;;13.20;11.37;;;5.20;99.90;;;;;;5095507;28;20572;-65
2020/12/01 04:00:19;;;;;;;13.17;11.83;;;5.20;99.90;;;;;;5095170;28;20417;-65
2020/12/01 04:02:45;;;;;;;14.80;13.30;;;5.20;99.90;;;;;;5095421;28;20395;-65
2020/12/01 04:05:11;;;;;;;12.50;11.20;;;5.20;99.90;;;;;;5094290;28;20630;-65
2020/12/01 04:07:37;;;;;;;12.93;11.60;;;5.20;99.90;;;;;;5095189;28;20243;-65
2020/12/01 04:10:05;;;;;;;13.10;11.80;;;5.10;99.90;;;;;;5095166;28;20824;-65
2020/12/01 04:12:31;;;;;;;11.87;10.67;;;5.10;99.90;;;;;;5094874;28;20218;-65
2020/12/01 04:14:57;;;;;;;12.10;10.87;;;5.10;99.90;;;;;;5093869;28;20458;-65
2020/12/01 04:17:23;;;;;;;12.60;11.30;;;5.10;99.90;;;;;;5095056;28;20546;-65
2020/12/01 04:19:49;;;;;;;11.97;10.70;;;5.10;99.90;;;;;;5094894;28;20192;-65
2020/12/01 04:22:15;;;;;;;12.77;11.57;;;5.00;99.90;;;;;;5094739;28;20201;-65
2020/12/01 04:24:41;;;;;;;12.57;11.27;;;5.00;99.90;;;;;;5095096;28;20424;-65
2020/12/01 04:27:07;;;;;;;12.90;11.70;;;5.10;99.90;;;;;;5094785;28;20389;-65
2020/12/01 04:29:33;;;;;;;13.30;11.90;;;5.10;99.90;;;;;;5094785;28;20478;-65
2020/12/01 04:31:59;;;;;;;13.80;12.40;;;5.10;99.90;;;;;;5094532;28;20451;-65
2020/12/01 04:34:24;;;;;;;14.73;13.13;;;5.20;99.90;;;;;;5094449;28;20179;-65
2020/12/01 04:36:50;;;;;;;13.40;12.10;;;5.20;99.90;;;;;;5094653;28;20423;-65
2020/12/01 04:39:15;;;;;;;13.40;12.00;;;5.20;99.90;;;;;;5094735;28;20155;-65
2020/12/01 04:41:41;;;;;;;13.00;11.70;;;5.20;99.90;;;;;;5094296;28;20203;-65
2020/12/01 04:44:31;;;;;;;12.60;11.50;;;5.30;99.90;;;;;;5093393;28;20166;-65
2020/12/01 04:47:02;;;;;;;13.87;12.37;;;5.30;99.90;;;;;;5093373;28;20147;-65
2020/12/01 04:49:31;;;;;;;13.80;11.77;;;5.30;99.90;;;;;;5094500;28;20445;-65
2020/12/01 05:00:38;;;;;;;13.23;11.93;;;5.40;99.90;;;;;;5090417;27;20511;-64
2020/12/01 05:03:43;;;;;;;14.07;12.73;;;5.40;99.90;;;;;;5090366;28;20895;-64
2020/12/01 05:12:15;;;;;;;14.20;12.53;;;5.40;99.90;;;;;;5110476;27;20850;-65
2020/12/01 05:17:53;;;;;;;15.33;13.27;;;5.40;99.90;;;;;;5090501;27;20507;-65
2020/12/01 05:20:19;;;;;;;16.07;14.17;;;5.50;99.90;;;;;;5089797;28;20428;-65
2020/12/01 05:22:48;;;;;;;15.80;14.20;;;5.50;99.90;;;;;;5089324;28;20394;-65
2020/12/01 05:25:19;;;;;;;15.53;14.00;;;5.50;99.90;;;;;;5088481;28;20148;-65
2020/12/01 05:27:45;;;;;;;15.17;13.43;;;5.60;99.90;;;;;;5070694;28;20383;-65
2020/12/01 05:30:14;;;;;;;15.23;13.63;;;5.60;99.90;;;;;;5069971;28;20789;-64
2020/12/01 05:32:49;;;;;;;15.77;14.13;;;5.60;99.90;;;;;;5070193;28;20213;-65
2020/12/01 05:35:24;;;;;;;15.80;14.20;;;5.60;99.90;;;;;;5069748;28;20435;-65
2020/12/01 05:37:51;;;;;;;16.23;13.63;;;5.60;99.90;;;;;;5069888;28;20391;-65
2020/12/01 05:40:17;;;;;;;15.53;14.00;;;5.60;99.90;;;;;;5070060;28;20396;-65
2020/12/01 05:42:45;;;;;;;17.53;14.93;;;5.60;99.90;;;;;;5073454;28;20409;-65
2020/12/01 05:45:25;;;;;;;14.50;13.00;;;5.60;99.90;;;;;;5069877;28;20643;-65
2020/12/01 05:48:00;;;;;;;18.13;14.13;;;5.60;99.90;;;;;;5069767;28;20415;-65
2020/12/01 05:50:26;;;;;;;17.10;15.23;;;5.60;99.90;;;;;;5069499;28;20453;-65
2020/12/01 05:53:04;;;;;;;15.43;13.77;;;5.60;99.90;;;;;;5069337;28;20415;-65
2020/12/01 05:55:29;;;;;;;15.80;14.27;;;5.60;99.90;;;;;;5072018;28;20201;-65
2020/12/01 06:00:40;;;;;;;17.33;15.53;;;5.70;99.90;;;;;;5097505;27;20573;-65
2020/12/01 06:05:50;;;;;;;16.97;15.17;;;5.70;99.90;;;;;;5108604;27;20527;-65
2020/12/01 06:08:32;;;;;;;15.27;13.70;;;5.70;99.90;;;;;;5109363;28;20783;-65
2020/12/01 06:11:03;;;;;;;17.13;14.50;;;5.70;99.90;;;;;;5109670;28;20471;-65
2020/12/01 06:13:36;;;;;;;16.63;14.93;;;5.70;99.90;;;;;;5110322;28;20413;-65
2020/12/01 06:19:02;;;;;;;16.27;13.70;;;5.70;99.90;;;;;;5131273;27;20502;-65
2020/12/01 06:30:46;;;;;;;18.10;16.23;;;5.70;99.90;;;;;;5108900;27;20525;-65
2020/12/01 06:33:45;;;;;;;16.63;14.83;;;5.70;99.90;;;;;;5096126;28;20823;-65
2020/12/01 06:36:41;;;;;;;16.73;15.10;;;5.80;99.90;;;;;;5101193;28;20466;-65
2020/12/01 06:39:31;;;;;;;16.43;14.77;;;5.80;99.90;;;;;;5110484;28;20430;-65
2020/12/01 06:42:19;;;;;;;17.40;15.40;;;5.80;99.90;;;;;;5089420;28;20421;-65
2020/12/01 06:44:55;;;;;;;19.13;16.80;;;5.80;99.90;;;;;;5089509;28;20436;-65
2020/12/01 06:47:25;;;;;;;18.60;16.53;;;5.80;99.90;;;;;;5090149;28;20417;-65
2020/12/01 06:49:56;;;;;;;23.43;21.00;;;5.80;99.90;;;;;;5090118;28;20439;-65
2020/12/01 06:52:22;;;;;;;23.17;18.50;;;5.80;99.90;;;;;;5122518;28;20411;-65
2020/12/01 06:54:54;;;;;;;19.67;17.77;;;5.90;99.90;;;;;;5089358;28;20896;-65
2020/12/01 06:57:32;;;;;;;21.07;17.23;;;5.90;99.90;;;;;;5122480;28;20764;-65
2020/12/01 06:59:58;;;;;;;19.17;16.40;;;5.90;99.90;;;;;;5090548;28;20803;-65
2020/12/01 07:02:29;;;;;;;18.60;16.77;;;5.90;99.90;;;;;;5089994;28;20767;-65
2020/12/01 07:05:07;;;;;;;19.63;16.57;;;5.90;99.90;;;;;;5090446;28;20394;-65
2020/12/01 07:07:37;;;;;;;19.33;17.37;;;6.00;99.90;;;;;;5121557;28;20430;-65
2020/12/01 07:10:27;;;;;;;20.03;17.67;;;5.90;99.90;;;;;;5089686;28;20814;-65
2020/12/01 07:13:16;;;;;;;22.60;17.60;;;6.00;99.90;;;;;;5104690;28;20467;-65
2020/12/01 07:15:46;;;;;;;22.60;17.87;;;6.00;99.90;;;;;;5108861;28;20393;-65
2020/12/01 07:18:26;;;;;;;23.00;17.97;;;6.00;99.90;;;;;;5109665;28;20403;-65
2020/12/01 07:23:52;;;;;;;19.33;16.40;;;6.00;99.90;;;;;;5131024;27;21095;-65
2020/12/01 07:29:44;;;;;;;25.90;18.70;;;6.10;99.90;;;;;;5130062;27;20517;-65
2020/12/01 07:32:15;;;;;;;24.90;18.87;;;6.10;99.90;;;;;;5129234;28;20430;-66
2020/12/01 07:34:41;;;;;;;25.70;18.47;;;6.20;99.90;;;;;;5131397;27;20385;-66
2020/12/01 07:37:29;;;;;;;27.87;19.30;;;6.20;99.90;;;;;;5131164;27;20388;-66
2020/12/01 07:39:59;;;;;;;29.90;21.47;;;6.20;99.90;;;;;;5127903;28;20269;-66
2020/12/01 07:42:28;;;;;;;26.00;20.07;;;6.30;99.90;;;;;;5115854;28;20763;-66
2020/12/01 07:44:56;;;;;;;35.23;22.27;;;6.30;99.90;;;;;;5110656;27;20408;-66
2020/12/01 07:47:25;;;;;;;26.47;22.17;;;6.30;99.90;;;;;;5110557;28;20545;-65
2020/12/01 07:50:02;;;;;;;32.83;22.13;;;6.30;99.90;;;;;;5117139;28;20464;-66
2020/12/01 07:52:46;;;;;;;30.13;21.17;;;6.30;99.90;;;;;;5110131;28;20404;-66
2020/12/01 07:58:06;;;;;;;52.80;29.07;;;6.30;99.90;;;;;;5090252;27;20916;-66
2020/12/01 08:00:32;;;;;;;43.97;28.80;;;6.40;99.90;;;;;;5091621;28;20430;-66
2020/12/01 08:03:01;;;;;;;38.73;26.20;;;6.40;99.90;;;;;;5090615;28;20462;-66
2020/12/01 08:05:27;;;;;;;43.37;26.57;;;6.40;99.90;;;;;;5091764;28;20424;-66
2020/12/01 08:07:54;;;;;;;43.57;26.37;;;6.40;99.90;;;;;;5092121;28;20476;-66
2020/12/01 08:10:20;;;;;;;45.63;27.40;;;6.40;99.90;;;;;;5089541;28;20184;-66
2020/12/01 08:12:48;;;;;;;34.87;23.13;;;6.40;99.90;;;;;;5088402;28;20418;-66
2020/12/01 08:15:18;;;;;;;37.23;25.00;;;6.40;99.90;;;;;;5086770;28;20176;-66
2020/12/01 08:17:43;;;;;;;34.80;22.73;;;6.50;99.90;;;;;;5092514;28;20444;-66
2020/12/01 08:20:13;;;;;;;36.67;23.40;;;6.50;99.90;;;;;;5090373;28;20430;-66
2020/12/01 08:22:41;;;;;;;39.60;26.57;;;6.50;99.90;;;;;;5089684;28;20193;-66
2020/12/01 08:25:13;;;;;;;47.13;27.43;;;6.50;99.90;;;;;;5090526;28;20410;-66
2020/12/01 08:30:35;;;;;;;41.20;27.07;;;6.50;99.90;;;;;;5104442;27;20929;-65
2020/12/01 08:33:18;;;;;;;47.57;29.83;;;6.60;99.90;;;;;;5085543;28;20444;-65
2020/12/01 08:35:54;;;;;;;48.33;30.47;;;6.60;99.90;;;;;;5084735;28;20426;-65
2020/12/01 08:38:54;;;;;;;48.83;31.43;;;6.70;99.90;;;;;;5073295;28;20843;-65
2020/12/01 08:41:47;;;;;;;42.10;27.13;;;6.70;99.90;;;;;;5072348;28;20423;-65
2020/12/01 08:44:37;;;;;;;47.53;26.67;;;6.70;99.90;;;;;;5074665;28;20961;-65
2020/12/01 08:47:04;;;;;;;41.40;25.87;;;6.80;99.90;;;;;;5087464;28;20467;-65
2020/12/01 08:49:42;;;;;;;40.03;25.70;;;6.80;99.90;;;;;;5065145;28;20748;-65
2020/12/01 08:52:26;;;;;;;40.50;26.20;;;6.80;99.90;;;;;;5055822;28;20437;-66
2020/12/01 08:54:56;;;;;;;46.57;27.30;;;6.80;99.90;;;;;;5086843;28;20479;-65
2020/12/01 08:57:33;;;;;;;37.20;23.47;;;6.80;99.90;;;;;;5071176;28;20448;-65
2020/12/01 09:00:11;;;;;;;40.53;24.20;;;6.80;99.90;;;;;;5088021;28;20421;-65
2020/12/01 09:02:43;;;;;;;35.57;24.60;;;6.80;99.90;;;;;;5088217;28;20412;-65
2020/12/01 09:05:23;;;;;;;33.70;23.13;;;6.80;99.90;;;;;;5069561;28;20522;-65
2020/12/01 09:07:57;;;;;;;34.23;24.90;;;6.90;99.90;;;;;;5086705;28;20414;-66
2020/12/01 09:10:30;;;;;;;39.53;26.33;;;6.90;99.90;;;;;;5083128;28;20537;-65
2020/12/01 09:13:07;;;;;;;39.00;25.37;;;6.90;99.90;;;;;;5087450;28;20900;-65
2020/12/01 09:24:00;;;;;;;32.13;23.80;;;7.10;99.90;;;;;;5074124;28;20589;-65
2020/12/01 09:26:26;;;;;;;32.00;21.83;;;7.10;99.90;;;;;;5087653;28;20456;-66
2020/12/01 09:28:53;;;;;;;36.10;24.70;;;7.10;99.90;;;;;;5087813;28;20506;-65
2020/12/01 09:31:21;;;;;;;35.37;24.83;;;7.20;99.90;;;;;;5088344;28;21836;-65
2020/12/01 09:33:46;;;;;;;40.10;25.80;;;7.20;99.90;;;;;;5084618;28;20419;-65
2020/12/01 09:36:17;;;;;;;33.13;23.70;;;7.20;99.90;;;;;;5088481;28;20754;-65
2020/12/01 09:38:43;;;;;;;32.07;23.23;;;7.30;99.90;;;;;;5088651;28;20227;-65
2020/12/01 09:41:12;;;;;;;29.57;22.50;;;7.40;99.90;;;;;;5087160;28;20420;-65
2020/12/01 09:43:44;;;;;;;37.33;23.80;;;7.40;99.90;;;;;;5085951;28;20161;-65
2020/12/01 09:46:12;;;;;;;33.73;23.90;;;7.40;99.90;;;;;;5086865;28;20392;-65
2020/12/01 09:48:42;;;;;;;34.50;22.53;;;7.50;99.90;;;;;;5083893;28;20752;-65
2020/12/01 09:51:09;;;;;;;30.00;21.43;;;7.50;99.90;;;;;;5081559;28;20416;-65
2020/12/01 10:10:22;;;;;;;28.90;20.60;;;7.90;99.90;;;;;;5054247;28;20393;-65
2020/12/01 10:26:53;;;;;;;22.07;18.07;;;8.20;99.90;;;;;;5093757;28;20423;-65
2020/12/01 10:32:17;;;;;;;24.93;18.90;;;8.20;99.90;;;;;;5084721;28;20420;-65
2020/12/01 10:37:13;;;;;;;25.67;18.70;;;8.20;99.90;;;;;;5093782;27;20586;-65
2020/12/01 10:39:39;;;;;;;23.50;18.30;;;8.20;99.90;;;;;;5091352;28;20433;-65
2020/12/01 10:42:07;;;;;;;26.33;19.70;;;8.20;99.90;;;;;;5105818;28;20903;-65
2020/12/01 10:44:33;;;;;;;22.10;19.70;;;8.20;99.90;;;;;;5089796;28;20171;-65
2020/12/01 10:46:58;;;;;;;25.00;19.07;;;8.20;99.90;;;;;;5088469;28;20869;-65
2020/12/01 10:49:24;;;;;;;22.87;18.50;;;8.20;99.90;;;;;;5089539;28;20465;-65
2020/12/01 10:51:49;;;;;;;21.57;18.57;;;8.20;99.90;;;;;;5085988;28;20212;-65
2020/12/01 10:54:15;;;;;;;21.63;15.70;;;8.20;99.90;;;;;;5083187;28;20206;-65
2020/12/01 10:56:41;;;;;;;17.20;14.00;;;8.30;99.90;;;;;;5072699;28;20309;-65
2020/12/01 10:59:06;;;;;;;20.80;15.37;;;8.30;99.90;;;;;;5092060;28;20513;-65
2020/12/01 11:01:34;;;;;;;18.30;15.87;;;8.30;99.90;;;;;;5095202;28;20595;-65
2020/12/01 11:04:00;;;;;;;16.47;14.47;;;8.30;99.90;;;;;;5087359;28;20186;-65
2020/12/01 11:06:26;;;;;;;16.60;13.63;;;8.40;99.90;;;;;;5089388;28;20428;-65
2020/12/01 11:08:51;;;;;;;15.37;12.57;;;8.30;99.90;;;;;;5079131;28;20855;-65
2020/12/01 11:11:18;;;;;;;16.10;14.03;;;8.30;99.90;;;;;;5099802;28;20246;-65
2020/12/01 11:13:44;;;;;;;17.60;14.67;;;8.30;99.90;;;;;;5093438;28;20221;-65
2020/12/01 11:16:10;;;;;;;14.90;13.03;;;8.30;99.90;;;;;;5086808;28;20479;-65
2020/12/01 11:18:35;;;;;;;16.20;13.60;;;8.30;99.90;;;;;;5090096;28;20179;-65
2020/12/01 11:21:01;;;;;;;15.77;14.07;;;8.30;99.90;;;;;;5085970;28;20447;-65
2020/12/01 11:23:26;;;;;;;16.37;14.63;;;8.20;99.90;;;;;;5087847;28;20174;-65
2020/12/01 11:25:52;;;;;;;16.77;13.90;;;8.20;99.90;;;;;;5084436;28;20193;-65
2020/12/01 11:28:17;;;;;;;18.13;15.80;;;8.10;99.90;;;;;;5103967;28;20169;-65
2020/12/01 11:30:43;;;;;;;17.63;13.00;;;8.10;99.90;;;;;;5098204;28;20186;-65
2020/12/01 11:33:08;;;;;;;15.60;12.80;;;8.10;99.90;;;;;;5096013;28;20182;-65
2020/12/01 11:35:34;;;;;;;13.77;12.27;;;8.10;99.90;;;;;;5079016;28;20233;-66
2020/12/01 11:37:59;;;;;;;16.63;12.77;;;8.10;99.90;;;;;;5098538;28;20241;-65
2020/12/01 11:40:25;;;;;;;17.40;13.40;;;8.10;99.90;;;;;;5098730;28;20188;-65
2020/12/01 11:42:50;;;;;;;17.63;15.20;;;8.00;99.90;;;;;;5095566;28;20183;-65
2020/12/01 11:45:16;;;;;;;16.40;13.50;;;8.10;99.90;;;;;;5096504;28;20569;-65
2020/12/01 11:47:42;;;;;;;15.20;13.33;;;8.00;99.90;;;;;;5090386;28;20183;-65
2020/12/01 11:50:09;;;;;;;16.37;13.20;;;8.10;99.90;;;;;;5070477;28;20833;-65
2020/12/01 11:52:35;;;;;;;13.67;12.07;;;8.00;99.90;;;;;;5072082;28;20174;-66
2020/12/01 11:55:00;;;;;;;18.57;13.37;;;8.00;99.90;;;;;;5074866;28;20994;-65
2020/12/01 11:57:26;;;;;;;13.17;11.87;;;8.00;99.90;;;;;;5062534;28;20184;-65
2020/12/01 11:59:52;;;;;;;16.70;13.27;;;8.10;99.90;;;;;;5072365;28;20182;-65
2020/12/01 12:02:18;;;;;;;16.77;14.97;;;8.10;99.90;;;;;;5083407;28;20693;-65
2020/12/01 12:04:43;;;;;;;17.73;14.00;;;8.20;99.90;;;;;;5083639;28;20190;-65
2020/12/01 12:07:09;;;;;;;17.40;13.43;;;8.20;99.90;;;;;;5087182;28;20413;-65
2020/12/01 12:09:34;;;;;;;13.60;12.13;;;8.30;99.90;;;;;;5061117;28;20195;-65
2020/12/01 12:12:00;;;;;;;14.20;12.37;;;8.30;99.90;;;;;;5064210;28;20164;-65
2020/12/01 12:14:25;;;;;;;12.67;11.37;;;8.30;99.90;;;;;;5054197;28;20300;-65
2020/12/01 12:16:51;;;;;;;15.43;11.90;;;8.30;99.90;;;;;;5070500;28;20225;-65
2020/12/01 12:19:16;;;;;;;12.80;11.47;;;8.30;99.90;;;;;;5074096;28;20251;-65
2020/12/01 12:21:42;;;;;;;12.10;10.90;;;8.30;99.90;;;;;;5067127;28;20662;-65
2020/12/01 12:24:07;;;;;;;13.20;11.80;;;8.20;99.90;;;;;;5073767;28;20155;-65
2020/12/01 12:26:33;;;;;;;13.40;11.47;;;8.20;99.90;;;;;;5071422;28;20620;-65
2020/12/01 12:28:58;;;;;;;12.30;11.10;;;8.20;99.90;;;;;;5053477;28;20259;-66
2020/12/01 12:31:24;;;;;;;16.50;12.87;;;8.20;99.90;;;;;;5053423;28;20184;-65
2020/12/01 12:33:50;;;;;;;11.90;10.73;;;8.20;99.90;;;;;;5053662;28;20536;-66
2020/12/01 12:36:16;;;;;;;10.40;9.40;;;8.20;99.90;;;;;;5053697;28;20466;-65
2020/12/01 12:38:41;;;;;;;12.37;10.90;;;8.20;99.90;;;;;;5056552;28;20167;-65
2020/12/01 12:41:07;;;;;;;12.60;11.30;;;8.20;99.90;;;;;;5066384;28;20802;-65
2020/12/01 12:43:33;;;;;;;12.23;10.93;;;8.20;99.90;;;;;;5054762;28;20175;-66
2020/12/01 12:45:59;;;;;;;11.10;10.00;;;8.20;99.90;;;;;;5062695;28;20163;-65
2020/12/01 12:48:26;;;;;;;11.63;10.47;;;8.20;99.90;;;;;;5057763;28;20528;-65
2020/12/01 12:50:52;;;;;;;11.70;10.50;;;8.20;99.90;;;;;;5054465;28;20558;-65
2020/12/01 12:53:18;;;;;;;11.70;10.53;;;8.20;99.90;;;;;;5061313;28;20438;-65
2020/12/01 12:55:45;;;;;;;12.90;10.80;;;8.20;99.90;;;;;;5054927;28;20199;-65
2020/12/01 12:58:10;;;;;;;11.10;10.00;;;8.20;99.90;;;;;;5060713;28;21056;-65
2020/12/01 13:00:36;;;;;;;11.57;10.50;;;8.30;99.90;;;;;;5073783;28;20386;-65
2020/12/01 13:03:01;;;;;;;12.00;10.70;;;8.30;99.90;;;;;;5064945;28;20612;-65
2020/12/01 13:05:27;;;;;;;11.13;10.03;;;8.30;99.90;;;;;;5078196;28;20218;-65
2020/12/01 13:07:54;;;;;;;10.67;8.73;;;8.30;99.90;;;;;;5090493;27;20179;-65
2020/12/01 13:10:20;;;;;;;11.93;10.83;;;8.40;99.90;;;;;;5064745;28;20921;-65
2020/12/01 13:12:46;;;;;;;11.10;10.00;;;8.40;99.90;;;;;;5058451;28;20433;-65
2020/12/01 13:15:12;;;;;;;11.33;10.17;;;8.40;99.90;;;;;;5053994;28;20469;-65
2020/12/01 13:17:40;;;;;;;11.80;10.70;;;8.50;99.90;;;;;;5053929;28;20251;-65
2020/12/01 13:20:07;;;;;;;10.83;9.63;;;8.50;99.90;;;;;;5053425;28;20429;-65
2020/12/01 13:22:33;;;;;;;11.40;9.57;;;8.50;99.90;;;;;;5072336;28;20424;-65
2020/12/01 13:24:58;;;;;;;13.00;9.30;;;8.50;99.90;;;;;;5065268;28;20494;-65
2020/12/01 13:27:24;;;;;;;12.37;10.60;;;8.50;99.90;;;;;;5056099;28;20179;-65
2020/12/01 13:29:49;;;;;;;12.10;10.97;;;8.60;99.90;;;;;;5066386;28;20170;-65
2020/12/01 13:32:15;;;;;;;12.60;10.10;;;8.50;99.90;;;;;;5073262;28;20156;-65
2020/12/01 13:34:40;;;;;;;13.27;11.07;;;8.50;99.90;;;;;;5062014;28;20211;-65
2020/12/01 13:37:06;;;;;;;11.83;10.50;;;8.50;99.90;;;;;;5063623;28;20200;-66
2020/12/01 13:39:31;;;;;;;11.07;9.97;;;8.40;99.90;;;;;;5058709;28;20176;-66
2020/12/01 13:41:57;;;;;;;9.73;8.47;;;8.40;99.90;;;;;;5063152;28;20172;-66
2020/12/01 13:44:23;;;;;;;10.67;9.50;;;8.40;99.90;;;;;;5062457;28;20170;-66
2020/12/01 13:46:52;;;;;;;9.10;8.30;;;8.40;99.90;;;;;;5091192;28;20528;-66
2020/12/01 13:49:17;;;;;;;8.73;7.93;;;8.40;99.90;;;;;;5084782;28;20179;-66
2020/12/01 13:51:43;;;;;;;9.33;8.43;;;8.40;99.90;;;;;;5065548;28;20952;-66
2020/12/01 13:54:08;;;;;;;9.40;8.40;;;8.40;99.90;;;;;;5070538;28;20591;-66
2020/12/01 13:56:34;;;;;;;10.77;9.80;;;8.40;99.90;;;;;;5056823;28;20203;-66
2020/12/01 13:59:01;;;;;;;8.53;7.70;;;8.40;99.90;;;;;;5065734;28;20264;-66
2020/12/01 14:01:29;;;;;;;9.43;7.63;;;8.40;99.90;;;;;;5059130;28;20449;-66
2020/12/01 14:03:55;;;;;;;8.37;7.57;;;8.40;99.90;;;;;;5070143;28;20940;-66
2020/12/01 14:06:21;;;;;;;8.60;7.67;;;8.30;99.90;;;;;;5066087;28;20399;-66
2020/12/01 14:08:47;;;;;;;9.47;8.57;;;8.30;99.90;;;;;;5054845;28;20448;-66
2020/12/01 14:11:14;;;;;;;9.70;7.40;;;8.30;99.90;;;;;;5067912;28;20190;-66
2020/12/01 14:13:40;;;;;;;7.50;6.60;;;8.30;99.90;;;;;;5055487;28;20501;-66
2020/12/01 14:16:05;;;;;;;8.30;7.57;;;8.30;99.90;;;;;;5068968;28;20449;-66
2020/12/01 14:18:32;;;;;;;8.50;7.43;;;8.30;99.90;;;;;;5067538;28;20962;-66
2020/12/01 14:20:59;;;;;;;10.27;9.17;;;8.20;99.90;;;;;;5067344;28;20202;-66
2020/12/01 14:23:25;;;;;;;9.10;8.20;;;8.20;99.90;;;;;;5071389;28;20409;-66